createdAt,value
2018-06-05T00:00:37.458Z,21.30
2018-06-05T00:03:05.471Z,19.80
2018-06-05T00:05:33.275Z,19.27
2018-06-05T00:08:01.155Z,17.07
2018-06-05T00:10:29.136Z,17.73
2018-06-05T00:12:57.305Z,19.33
2018-06-05T00:15:25.145Z,19.03
2018-06-05T00:17:53.219Z,18.33
2018-06-05T00:20:21.163Z,18.73
2018-06-05T00:22:49.034Z,18.90
2018-06-05T00:25:16.821Z,18.67
2018-06-05T00:27:44.627Z,17.83
2018-06-05T00:30:12.520Z,18.20
2018-06-05T00:32:41.055Z,17.27
2018-06-05T00:35:08.843Z,17.30
2018-06-05T00:37:36.696Z,16.50
2018-06-05T00:40:04.923Z,15.57
2018-06-05T00:42:32.901Z,15.67
2018-06-05T00:45:00.797Z,15.97
2018-06-05T00:47:28.622Z,17.30
2018-06-05T00:49:56.518Z,19.17
2018-06-05T00:52:24.667Z,15.80
2018-06-05T00:54:52.482Z,18.43
2018-06-05T00:57:20.308Z,20.00
2018-06-05T00:59:48.147Z,20.03
2018-06-05T01:02:15.980Z,19.47
2018-06-05T01:04:43.791Z,20.17
2018-06-05T01:07:11.778Z,19.73
2018-06-05T01:09:39.574Z,18.87
2018-06-05T01:12:07.498Z,19.10
2018-06-05T01:14:35.518Z,16.97
2018-06-05T01:17:03.363Z,16.53
2018-06-05T01:19:31.161Z,17.27
2018-06-05T01:21:59.014Z,16.17
2018-06-05T01:24:26.840Z,15.47
2018-06-05T01:26:54.664Z,15.70
2018-06-05T01:29:22.521Z,15.73
2018-06-05T01:31:50.311Z,17.27
2018-06-05T01:34:18.155Z,17.07
2018-06-05T01:36:46.075Z,17.37
2018-06-05T01:39:13.915Z,17.97
2018-06-05T01:41:41.732Z,22.37
2018-06-05T01:44:09.589Z,21.27
2018-06-05T01:46:37.772Z,26.90
2018-06-05T01:49:06.942Z,27.57
2018-06-05T01:51:35.157Z,20.77
2018-06-05T01:54:03.354Z,21.90
2018-06-05T01:56:31.207Z,19.80
2018-06-05T01:59:00.192Z,24.23
2018-06-05T02:01:28.002Z,22.50
2018-06-05T02:06:47.068Z,20.47
2018-06-05T02:09:15.149Z,21.20
2018-06-05T02:11:43.227Z,20.30
2018-06-05T02:14:11.444Z,21.30
2018-06-05T02:16:39.528Z,23.80
2018-06-05T02:19:07.660Z,23.57
2018-06-05T02:21:35.687Z,24.30
2018-06-05T02:24:03.680Z,22.90
2018-06-05T02:26:31.626Z,23.73
2018-06-05T02:28:59.478Z,22.70
2018-06-05T02:31:27.284Z,21.13
2018-06-05T02:33:55.087Z,21.07
2018-06-05T02:36:23.075Z,20.00
2018-06-05T02:38:51.021Z,20.20
2018-06-05T02:41:18.828Z,21.27
2018-06-05T02:43:46.678Z,19.17
2018-06-05T02:46:14.839Z,21.30
2018-06-05T02:48:42.799Z,20.80
2018-06-05T02:51:10.665Z,21.33
2018-06-05T02:53:38.488Z,20.93
2018-06-05T02:56:06.730Z,18.53
2018-06-05T02:58:34.893Z,19.83
2018-06-05T03:01:02.718Z,21.37
2018-06-05T03:03:30.518Z,19.90
2018-06-05T03:05:58.378Z,19.70
2018-06-05T03:08:26.306Z,19.70
2018-06-05T03:10:54.221Z,20.90
2018-06-05T03:13:22.062Z,21.47
2018-06-05T03:15:50.207Z,19.20
2018-06-05T03:18:18.010Z,17.20
2018-06-05T03:20:45.955Z,16.80
2018-06-05T03:23:13.761Z,18.93
2018-06-05T03:25:41.550Z,19.07
2018-06-05T03:28:09.411Z,18.10
2018-06-05T03:30:37.258Z,21.93
2018-06-05T03:33:05.175Z,21.73
2018-06-05T03:35:33.115Z,21.70
2018-06-05T03:38:00.929Z,21.63
2018-06-05T03:40:28.733Z,21.27
2018-06-05T03:45:50.814Z,24.90
2018-06-05T03:48:18.619Z,29.63
2018-06-05T03:50:46.444Z,22.40
2018-06-05T03:53:14.307Z,28.87
2018-06-05T03:55:42.133Z,21.87
2018-06-05T03:58:10.104Z,20.07
2018-06-05T04:00:38.141Z,18.70
2018-06-05T04:03:05.951Z,19.50
